sensor_id;sensor_type;location;lat;lon;timestamp;P1;durP1;ratioP1;P2;durP2;ratioP2
12784;SDS011;6456;42.680;23.260;2023-10-08T00:02:15;5.83;;;2.87;;
12784;SDS011;6456;42.680;23.260;2023-10-08T00:04:47;7.53;;;4.73;;
12784;SDS011;6456;42.680;23.260;2023-10-08T00:07:16;5.37;;;3.23;;
12784;SDS011;6456;42.680;23.260;2023-10-08T00:09:46;4.37;;;3.00;;
12784;SDS011;6456;42.680;23.260;2023-10-08T00:12:16;4.20;;;3.07;;
12784;SDS011;6456;42.680;23.260;2023-10-08T00:14:46;4.27;;;3.20;;
12784;SDS011;6456;42.680;23.260;2023-10-08T00:17:15;4.83;;;3.40;;
12784;SDS011;6456;42.680;23.260;2023-10-08T00:19:42;4.67;;;3.13;;
12784;SDS011;6456;42.680;23.260;2023-10-08T00:22:09;7.87;;;3.70;;
12784;SDS011;6456;42.680;23.260;2023-10-08T00:24:38;5.50;;;3.13;;
12784;SDS011;6456;42.680;23.260;2023-10-08T00:27:07;4.33;;;3.10;;
12784;SDS011;6456;42.680;23.260;2023-10-08T00:29:34;4.57;;;3.03;;
12784;SDS011;6456;42.680;23.260;2023-10-08T00:32:06;5.23;;;3.30;;
12784;SDS011;6456;42.680;23.260;2023-10-08T00:34:38;6.50;;;3.10;;
12784;SDS011;6456;42.680;23.260;2023-10-08T00:37:09;4.20;;;3.00;;
12784;SDS011;6456;42.680;23.260;2023-10-08T00:39:39;5.03;;;3.40;;
12784;SDS011;6456;42.680;23.260;2023-10-08T00:42:07;4.17;;;3.40;;
12784;SDS011;6456;42.680;23.260;2023-10-08T00:44:34;4.13;;;3.13;;
12784;SDS011;6456;42.680;23.260;2023-10-08T00:47:14;4.13;;;3.30;;
12784;SDS011;6456;42.680;23.260;2023-10-08T00:49:45;3.77;;;3.17;;
12784;SDS011;6456;42.680;23.260;2023-10-08T00:52:19;4.30;;;3.10;;
12784;SDS011;6456;42.680;23.260;2023-10-08T00:54:55;5.73;;;3.77;;
12784;SDS011;6456;42.680;23.260;2023-10-08T00:57:34;6.83;;;4.77;;
12784;SDS011;6456;42.680;23.260;2023-10-08T01:00:07;5.40;;;4.37;;
12784;SDS011;6456;42.680;23.260;2023-10-08T01:02:43;6.80;;;5.07;;
12784;SDS011;6456;42.680;23.260;2023-10-08T01:05:14;7.13;;;5.00;;
12784;SDS011;6456;42.680;23.260;2023-10-08T01:07:44;5.67;;;4.43;;
12784;SDS011;6456;42.680;23.260;2023-10-08T01:10:14;7.10;;;5.03;;
12784;SDS011;6456;42.680;23.260;2023-10-08T01:12:45;8.47;;;5.10;;
12784;SDS011;6456;42.680;23.260;2023-10-08T01:15:21;7.07;;;4.97;;
12784;SDS011;6456;42.680;23.260;2023-10-08T01:17:56;6.67;;;4.63;;
12784;SDS011;6456;42.680;23.260;2023-10-08T01:20:26;7.67;;;4.93;;
12784;SDS011;6456;42.680;23.260;2023-10-08T01:23:03;8.37;;;4.70;;
12784;SDS011;6456;42.680;23.260;2023-10-08T01:25:34;8.07;;;6.17;;
12784;SDS011;6456;42.680;23.260;2023-10-08T01:28:05;8.47;;;5.33;;
12784;SDS011;6456;42.680;23.260;2023-10-08T01:30:40;7.30;;;5.20;;
12784;SDS011;6456;42.680;23.260;2023-10-08T01:33:12;7.17;;;5.27;;
12784;SDS011;6456;42.680;23.260;2023-10-08T01:35:40;11.10;;;4.90;;
12784;SDS011;6456;42.680;23.260;2023-10-08T01:38:09;6.23;;;4.70;;
12784;SDS011;6456;42.680;23.260;2023-10-08T01:40:39;9.23;;;4.60;;
12784;SDS011;6456;42.680;23.260;2023-10-08T01:43:08;8.50;;;5.47;;
12784;SDS011;6456;42.680;23.260;2023-10-08T01:45:38;6.73;;;4.90;;
12784;SDS011;6456;42.680;23.260;2023-10-08T01:48:08;7.40;;;4.17;;
12784;SDS011;6456;42.680;23.260;2023-10-08T01:50:36;6.47;;;4.03;;
12784;SDS011;6456;42.680;23.260;2023-10-08T01:53:03;5.40;;;4.10;;
12784;SDS011;6456;42.680;23.260;2023-10-08T01:55:35;6.60;;;4.30;;
12784;SDS011;6456;42.680;23.260;2023-10-08T01:58:14;8.87;;;4.47;;
12784;SDS011;6456;42.680;23.260;2023-10-08T02:00:42;7.80;;;4.70;;
12784;SDS011;6456;42.680;23.260;2023-10-08T02:03:11;6.83;;;4.83;;
12784;SDS011;6456;42.680;23.260;2023-10-08T02:05:40;7.40;;;4.17;;
12784;SDS011;6456;42.680;23.260;2023-10-08T02:08:08;6.63;;;4.50;;
12784;SDS011;6456;42.680;23.260;2023-10-08T02:10:38;5.90;;;4.10;;
12784;SDS011;6456;42.680;23.260;2023-10-08T02:13:06;6.43;;;3.80;;
12784;SDS011;6456;42.680;23.260;2023-10-08T02:15:34;7.00;;;4.67;;
12784;SDS011;6456;42.680;23.260;2023-10-08T02:18:05;5.57;;;4.20;;
12784;SDS011;6456;42.680;23.260;2023-10-08T02:20:33;4.90;;;3.90;;
12784;SDS011;6456;42.680;23.260;2023-10-08T02:23:00;6.90;;;4.27;;
12784;SDS011;6456;42.680;23.260;2023-10-08T02:25:30;5.57;;;4.20;;
12784;SDS011;6456;42.680;23.260;2023-10-08T02:28:02;6.07;;;4.00;;
12784;SDS011;6456;42.680;23.260;2023-10-08T02:30:30;5.47;;;4.03;;
12784;SDS011;6456;42.680;23.260;2023-10-08T02:32:57;6.27;;;4.30;;
12784;SDS011;6456;42.680;23.260;2023-10-08T02:35:24;6.97;;;4.43;;
12784;SDS011;6456;42.680;23.260;2023-10-08T02:37:52;4.60;;;4.00;;
12784;SDS011;6456;42.680;23.260;2023-10-08T02:40:20;6.67;;;4.40;;
12784;SDS011;6456;42.680;23.260;2023-10-08T02:42:52;7.03;;;4.30;;
12784;SDS011;6456;42.680;23.260;2023-10-08T02:45:25;8.27;;;4.43;;
12784;SDS011;6456;42.680;23.260;2023-10-08T02:47:52;8.67;;;4.50;;
12784;SDS011;6456;42.680;23.260;2023-10-08T02:50:20;8.00;;;4.20;;
12784;SDS011;6456;42.680;23.260;2023-10-08T02:52:48;8.00;;;4.40;;
12784;SDS011;6456;42.680;23.260;2023-10-08T02:55:15;5.80;;;4.10;;
12784;SDS011;6456;42.680;23.260;2023-10-08T02:57:53;6.23;;;4.30;;
12784;SDS011;6456;42.680;23.260;2023-10-08T03:00:21;5.83;;;4.13;;
12784;SDS011;6456;42.680;23.260;2023-10-08T03:02:56;5.60;;;4.17;;
12784;SDS011;6456;42.680;23.260;2023-10-08T03:05:26;5.80;;;4.20;;
12784;SDS011;6456;42.680;23.260;2023-10-08T03:08:01;6.57;;;4.37;;
12784;SDS011;6456;42.680;23.260;2023-10-08T03:10:28;7.07;;;4.17;;
12784;SDS011;6456;42.680;23.260;2023-10-08T03:12:58;5.90;;;4.10;;
12784;SDS011;6456;42.680;23.260;2023-10-08T03:15:29;5.20;;;3.50;;
12784;SDS011;6456;42.680;23.260;2023-10-08T03:18:05;4.43;;;3.73;;
12784;SDS011;6456;42.680;23.260;2023-10-08T03:20:35;6.67;;;4.17;;
12784;SDS011;6456;42.680;23.260;2023-10-08T03:23:08;7.17;;;4.27;;
12784;SDS011;6456;42.680;23.260;2023-10-08T03:25:50;7.40;;;4.57;;
12784;SDS011;6456;42.680;23.260;2023-10-08T03:28:22;8.47;;;4.30;;
12784;SDS011;6456;42.680;23.260;2023-10-08T03:30:50;10.50;;;4.70;;
12784;SDS011;6456;42.680;23.260;2023-10-08T03:33:29;8.07;;;4.67;;
12784;SDS011;6456;42.680;23.260;2023-10-08T03:35:59;7.93;;;4.93;;
12784;SDS011;6456;42.680;23.260;2023-10-08T03:38:34;7.37;;;5.00;;
12784;SDS011;6456;42.680;23.260;2023-10-08T03:41:18;7.17;;;3.90;;
12784;SDS011;6456;42.680;23.260;2023-10-08T03:43:53;5.63;;;4.17;;
12784;SDS011;6456;42.680;23.260;2023-10-08T03:46:26;8.87;;;4.60;;
12784;SDS011;6456;42.680;23.260;2023-10-08T03:48:55;7.00;;;4.37;;
12784;SDS011;6456;42.680;23.260;2023-10-08T03:51:22;7.77;;;4.63;;
12784;SDS011;6456;42.680;23.260;2023-10-08T03:53:52;4.93;;;4.17;;
12784;SDS011;6456;42.680;23.260;2023-10-08T03:56:40;10.77;;;5.03;;
12784;SDS011;6456;42.680;23.260;2023-10-08T03:59:11;8.73;;;4.90;;
12784;SDS011;6456;42.680;23.260;2023-10-08T04:01:40;8.87;;;4.37;;
12784;SDS011;6456;42.680;23.260;2023-10-08T04:04:24;6.90;;;4.17;;
12784;SDS011;6456;42.680;23.260;2023-10-08T04:07:12;7.37;;;4.63;;
12784;SDS011;6456;42.680;23.260;2023-10-08T04:09:53;5.97;;;4.23;;
12784;SDS011;6456;42.680;23.260;2023-10-08T04:12:31;7.47;;;4.27;;
12784;SDS011;6456;42.680;23.260;2023-10-08T04:14:59;6.43;;;4.20;;
12784;SDS011;6456;42.680;23.260;2023-10-08T04:17:26;11.83;;;4.27;;
12784;SDS011;6456;42.680;23.260;2023-10-08T04:19:56;9.57;;;3.97;;
12784;SDS011;6456;42.680;23.260;2023-10-08T04:22:23;8.00;;;4.13;;
12784;SDS011;6456;42.680;23.260;2023-10-08T04:24:50;8.47;;;4.30;;
12784;SDS011;6456;42.680;23.260;2023-10-08T04:27:19;8.23;;;4.83;;
12784;SDS011;6456;42.680;23.260;2023-10-08T04:29:47;6.77;;;4.57;;
12784;SDS011;6456;42.680;23.260;2023-10-08T04:32:15;8.87;;;4.50;;
12784;SDS011;6456;42.680;23.260;2023-10-08T04:34:49;6.13;;;4.50;;
12784;SDS011;6456;42.680;23.260;2023-10-08T04:37:19;15.37;;;5.00;;
12784;SDS011;6456;42.680;23.260;2023-10-08T04:39:46;6.80;;;4.67;;
12784;SDS011;6456;42.680;23.260;2023-10-08T04:42:23;9.47;;;4.37;;
12784;SDS011;6456;42.680;23.260;2023-10-08T04:44:53;8.57;;;4.10;;
12784;SDS011;6456;42.680;23.260;2023-10-08T04:47:20;7.07;;;4.50;;
12784;SDS011;6456;42.680;23.260;2023-10-08T04:49:57;7.43;;;4.60;;
12784;SDS011;6456;42.680;23.260;2023-10-08T04:52:25;9.93;;;5.13;;
12784;SDS011;6456;42.680;23.260;2023-10-08T04:54:53;9.20;;;4.73;;
12784;SDS011;6456;42.680;23.260;2023-10-08T04:57:21;9.43;;;4.40;;
12784;SDS011;6456;42.680;23.260;2023-10-08T04:59:50;8.57;;;4.20;;
12784;SDS011;6456;42.680;23.260;2023-10-08T05:02:22;8.17;;;4.37;;
12784;SDS011;6456;42.680;23.260;2023-10-08T05:04:59;10.77;;;4.67;;
12784;SDS011;6456;42.680;23.260;2023-10-08T05:07:45;6.97;;;4.30;;
12784;SDS011;6456;42.680;23.260;2023-10-08T05:10:42;9.53;;;4.43;;
12784;SDS011;6456;42.680;23.260;2023-10-08T05:13:26;9.93;;;5.10;;
12784;SDS011;6456;42.680;23.260;2023-10-08T05:15:58;12.27;;;6.43;;
12784;SDS011;6456;42.680;23.260;2023-10-08T05:18:36;10.07;;;5.43;;
12784;SDS011;6456;42.680;23.260;2023-10-08T05:21:23;8.93;;;5.03;;
12784;SDS011;6456;42.680;23.260;2023-10-08T05:24:07;8.80;;;5.27;;
12784;SDS011;6456;42.680;23.260;2023-10-08T05:26:39;10.40;;;5.67;;
12784;SDS011;6456;42.680;23.260;2023-10-08T05:29:10;9.63;;;5.20;;
12784;SDS011;6456;42.680;23.260;2023-10-08T05:32:15;14.70;;;6.77;;
12784;SDS011;6456;42.680;23.260;2023-10-08T05:35:03;9.83;;;5.47;;
12784;SDS011;6456;42.680;23.260;2023-10-08T05:37:45;11.40;;;6.10;;
12784;SDS011;6456;42.680;23.260;2023-10-08T05:40:18;11.73;;;5.57;;
12784;SDS011;6456;42.680;23.260;2023-10-08T05:43:09;13.83;;;6.83;;
12784;SDS011;6456;42.680;23.260;2023-10-08T05:45:48;14.30;;;7.07;;
12784;SDS011;6456;42.680;23.260;2023-10-08T05:48:39;14.37;;;6.23;;
12784;SDS011;6456;42.680;23.260;2023-10-08T05:51:10;10.13;;;5.87;;
12784;SDS011;6456;42.680;23.260;2023-10-08T05:53:49;9.80;;;5.77;;
12784;SDS011;6456;42.680;23.260;2023-10-08T05:56:22;10.30;;;6.40;;
12784;SDS011;6456;42.680;23.260;2023-10-08T05:59:17;9.53;;;5.90;;
12784;SDS011;6456;42.680;23.260;2023-10-08T06:01:52;25.53;;;8.00;;
12784;SDS011;6456;42.680;23.260;2023-10-08T06:04:31;13.53;;;6.43;;
12784;SDS011;6456;42.680;23.260;2023-10-08T06:07:18;11.80;;;7.13;;
12784;SDS011;6456;42.680;23.260;2023-10-08T06:09:58;16.50;;;5.97;;
12784;SDS011;6456;42.680;23.260;2023-10-08T06:12:40;18.57;;;6.40;;
12784;SDS011;6456;42.680;23.260;2023-10-08T06:15:15;14.30;;;5.73;;
12784;SDS011;6456;42.680;23.260;2023-10-08T06:17:52;9.43;;;5.80;;
12784;SDS011;6456;42.680;23.260;2023-10-08T06:20:23;9.57;;;5.47;;
12784;SDS011;6456;42.680;23.260;2023-10-08T06:22:54;13.10;;;5.03;;
12784;SDS011;6456;42.680;23.260;2023-10-08T06:25:28;11.90;;;6.17;;
12784;SDS011;6456;42.680;23.260;2023-10-08T06:27:58;14.13;;;6.00;;
12784;SDS011;6456;42.680;23.260;2023-10-08T06:30:27;9.70;;;6.27;;
12784;SDS011;6456;42.680;23.260;2023-10-08T06:32:59;9.53;;;5.77;;
12784;SDS011;6456;42.680;23.260;2023-10-08T06:35:26;8.27;;;5.63;;
12784;SDS011;6456;42.680;23.260;2023-10-08T06:37:54;9.63;;;5.30;;
12784;SDS011;6456;42.680;23.260;2023-10-08T06:40:26;9.10;;;6.03;;
12784;SDS011;6456;42.680;23.260;2023-10-08T06:43:10;8.37;;;5.63;;
12784;SDS011;6456;42.680;23.260;2023-10-08T06:45:47;14.70;;;6.87;;
12784;SDS011;6456;42.680;23.260;2023-10-08T06:48:17;11.10;;;6.60;;
12784;SDS011;6456;42.680;23.260;2023-10-08T06:50:46;18.93;;;6.77;;
12784;SDS011;6456;42.680;23.260;2023-10-08T06:53:14;14.13;;;7.70;;
12784;SDS011;6456;42.680;23.260;2023-10-08T06:55:43;18.17;;;7.37;;
12784;SDS011;6456;42.680;23.260;2023-10-08T06:58:14;10.77;;;6.13;;
12784;SDS011;6456;42.680;23.260;2023-10-08T07:00:42;14.27;;;7.13;;
12784;SDS011;6456;42.680;23.260;2023-10-08T07:03:14;7.57;;;3.90;;
12784;SDS011;6456;42.680;23.260;2023-10-08T07:05:43;4.43;;;2.80;;
12784;SDS011;6456;42.680;23.260;2023-10-08T07:08:19;3.83;;;3.00;;
12784;SDS011;6456;42.680;23.260;2023-10-08T07:10:48;3.50;;;2.93;;
12784;SDS011;6456;42.680;23.260;2023-10-08T07:13:17;11.50;;;3.10;;
12784;SDS011;6456;42.680;23.260;2023-10-08T07:15:47;4.37;;;3.07;;
12784;SDS011;6456;42.680;23.260;2023-10-08T07:18:15;4.27;;;2.67;;
12784;SDS011;6456;42.680;23.260;2023-10-08T07:20:50;3.77;;;2.80;;
12784;SDS011;6456;42.680;23.260;2023-10-08T07:23:26;5.70;;;3.07;;
12784;SDS011;6456;42.680;23.260;2023-10-08T07:25:55;3.73;;;3.03;;
12784;SDS011;6456;42.680;23.260;2023-10-08T07:28:28;3.23;;;2.87;;
12784;SDS011;6456;42.680;23.260;2023-10-08T07:30:55;4.43;;;2.77;;
12784;SDS011;6456;42.680;23.260;2023-10-08T07:33:23;3.77;;;2.67;;
12784;SDS011;6456;42.680;23.260;2023-10-08T07:35:50;3.43;;;2.77;;
12784;SDS011;6456;42.680;23.260;2023-10-08T07:38:22;2.97;;;2.63;;
12784;SDS011;6456;42.680;23.260;2023-10-08T07:40:54;5.37;;;2.80;;
12784;SDS011;6456;42.680;23.260;2023-10-08T07:43:22;5.57;;;2.70;;
12784;SDS011;6456;42.680;23.260;2023-10-08T07:45:51;5.53;;;2.93;;
12784;SDS011;6456;42.680;23.260;2023-10-08T07:48:22;4.37;;;3.10;;
12784;SDS011;6456;42.680;23.260;2023-10-08T07:50:54;7.03;;;3.07;;
12784;SDS011;6456;42.680;23.260;2023-10-08T07:53:22;4.30;;;2.60;;
12784;SDS011;6456;42.680;23.260;2023-10-08T07:55:50;5.50;;;3.17;;
12784;SDS011;6456;42.680;23.260;2023-10-08T07:58:17;3.70;;;2.60;;
12784;SDS011;6456;42.680;23.260;2023-10-08T08:00:45;4.17;;;2.80;;
12784;SDS011;6456;42.680;23.260;2023-10-08T08:03:20;4.60;;;3.13;;
12784;SDS011;6456;42.680;23.260;2023-10-08T08:05:48;3.10;;;2.70;;
12784;SDS011;6456;42.680;23.260;2023-10-08T08:08:18;5.83;;;2.87;;
12784;SDS011;6456;42.680;23.260;2023-10-08T08:10:47;4.57;;;3.10;;
12784;SDS011;6456;42.680;23.260;2023-10-08T08:13:23;3.57;;;2.67;;
12784;SDS011;6456;42.680;23.260;2023-10-08T08:15:54;3.67;;;2.80;;
12784;SDS011;6456;42.680;23.260;2023-10-08T08:18:25;4.53;;;2.87;;
12784;SDS011;6456;42.680;23.260;2023-10-08T08:20:58;3.63;;;2.97;;
12784;SDS011;6456;42.680;23.260;2023-10-08T08:23:27;5.43;;;3.00;;
12784;SDS011;6456;42.680;23.260;2023-10-08T08:25:55;5.43;;;2.97;;
12784;SDS011;6456;42.680;23.260;2023-10-08T08:28:36;5.30;;;3.20;;
12784;SDS011;6456;42.680;23.260;2023-10-08T08:31:03;5.00;;;3.03;;
12784;SDS011;6456;42.680;23.260;2023-10-08T08:33:39;3.50;;;2.90;;
12784;SDS011;6456;42.680;23.260;2023-10-08T08:36:21;4.60;;;3.30;;
12784;SDS011;6456;42.680;23.260;2023-10-08T08:38:50;5.00;;;3.20;;
12784;SDS011;6456;42.680;23.260;2023-10-08T08:41:18;5.47;;;2.93;;
12784;SDS011;6456;42.680;23.260;2023-10-08T08:43:48;6.50;;;3.50;;
12784;SDS011;6456;42.680;23.260;2023-10-08T08:46:22;4.70;;;3.17;;
12784;SDS011;6456;42.680;23.260;2023-10-08T08:48:59;5.67;;;3.70;;
12784;SDS011;6456;42.680;23.260;2023-10-08T08:51:29;4.30;;;3.03;;
12784;SDS011;6456;42.680;23.260;2023-10-08T08:53:58;4.03;;;2.87;;
12784;SDS011;6456;42.680;23.260;2023-10-08T08:56:26;4.37;;;3.27;;
12784;SDS011;6456;42.680;23.260;2023-10-08T08:58:53;5.90;;;3.13;;
12784;SDS011;6456;42.680;23.260;2023-10-08T09:01:21;7.33;;;3.67;;
12784;SDS011;6456;42.680;23.260;2023-10-08T09:03:48;5.37;;;3.30;;
12784;SDS011;6456;42.680;23.260;2023-10-08T09:06:23;5.33;;;3.23;;
12784;SDS011;6456;42.680;23.260;2023-10-08T09:08:50;8.23;;;2.83;;
12784;SDS011;6456;42.680;23.260;2023-10-08T09:11:17;6.10;;;3.40;;
12784;SDS011;6456;42.680;23.260;2023-10-08T09:13:44;6.05;;;3.47;;
12784;SDS011;6456;42.680;23.260;2023-10-08T09:16:12;6.30;;;3.50;;
12784;SDS011;6456;42.680;23.260;2023-10-08T09:18:41;5.35;;;3.42;;
12784;SDS011;6456;42.680;23.260;2023-10-08T09:21:09;7.60;;;3.50;;
12784;SDS011;6456;42.680;23.260;2023-10-08T09:23:41;8.50;;;3.75;;
12784;SDS011;6456;42.680;23.260;2023-10-08T09:26:09;16.00;;;4.70;;
12784;SDS011;6456;42.680;23.260;2023-10-08T09:28:39;4.90;;;3.35;;
12784;SDS011;6456;42.680;23.260;2023-10-08T09:31:09;6.55;;;3.15;;
12784;SDS011;6456;42.680;23.260;2023-10-08T09:33:37;7.32;;;3.40;;
12784;SDS011;6456;42.680;23.260;2023-10-08T09:36:06;5.15;;;3.53;;
12784;SDS011;6456;42.680;23.260;2023-10-08T09:38:36;4.88;;;3.40;;
12784;SDS011;6456;42.680;23.260;2023-10-08T09:41:05;4.57;;;3.13;;
12784;SDS011;6456;42.680;23.260;2023-10-08T09:43:33;6.07;;;3.50;;
12784;SDS011;6456;42.680;23.260;2023-10-08T09:46:03;4.95;;;2.95;;
12784;SDS011;6456;42.680;23.260;2023-10-08T09:48:37;6.38;;;3.28;;
12784;SDS011;6456;42.680;23.260;2023-10-08T09:51:06;5.95;;;3.30;;
12784;SDS011;6456;42.680;23.260;2023-10-08T09:53:40;4.65;;;2.95;;
12784;SDS011;6456;42.680;23.260;2023-10-08T09:56:15;4.95;;;3.22;;
12784;SDS011;6456;42.680;23.260;2023-10-08T09:58:43;8.60;;;3.47;;
12784;SDS011;6456;42.680;23.260;2023-10-08T10:01:11;4.32;;;3.40;;
12784;SDS011;6456;42.680;23.260;2023-10-08T10:03:38;6.28;;;3.60;;
12784;SDS011;6456;42.680;23.260;2023-10-08T10:06:17;4.47;;;3.10;;
12784;SDS011;6456;42.680;23.260;2023-10-08T10:08:45;4.47;;;3.35;;
12784;SDS011;6456;42.680;23.260;2023-10-08T10:11:16;4.93;;;3.60;;
12784;SDS011;6456;42.680;23.260;2023-10-08T10:13:43;5.30;;;3.63;;
12784;SDS011;6456;42.680;23.260;2023-10-08T10:16:13;4.72;;;3.15;;
12784;SDS011;6456;42.680;23.260;2023-10-08T10:18:43;3.30;;;2.83;;
12784;SDS011;6456;42.680;23.260;2023-10-08T10:21:24;10.23;;;3.05;;
12784;SDS011;6456;42.680;23.260;2023-10-08T10:23:54;3.67;;;2.63;;
12784;SDS011;6456;42.680;23.260;2023-10-08T10:26:24;5.78;;;2.58;;
12784;SDS011;6456;42.680;23.260;2023-10-08T10:31:48;5.57;;;2.58;;
12784;SDS011;6456;42.680;23.260;2023-10-08T10:34:19;4.55;;;2.60;;
12784;SDS011;6456;42.680;23.260;2023-10-08T10:36:48;4.45;;;3.10;;
12784;SDS011;6456;42.680;23.260;2023-10-08T10:39:21;2.97;;;2.67;;
12784;SDS011;6456;42.680;23.260;2023-10-08T10:41:54;3.83;;;2.83;;
12784;SDS011;6456;42.680;23.260;2023-10-08T10:44:26;3.22;;;2.72;;
12784;SDS011;6456;42.680;23.260;2023-10-08T10:46:54;4.03;;;2.90;;
12784;SDS011;6456;42.680;23.260;2023-10-08T10:49:47;4.57;;;3.05;;
12784;SDS011;6456;42.680;23.260;2023-10-08T10:52:19;4.32;;;2.83;;
12784;SDS011;6456;42.680;23.260;2023-10-08T10:54:57;2.95;;;2.60;;
12784;SDS011;6456;42.680;23.260;2023-10-08T10:57:46;4.95;;;2.88;;
12784;SDS011;6456;42.680;23.260;2023-10-08T11:00:21;3.28;;;2.72;;
12784;SDS011;6456;42.680;23.260;2023-10-08T11:03:15;4.28;;;3.28;;
12784;SDS011;6456;42.680;23.260;2023-10-08T11:05:50;3.63;;;2.97;;
12784;SDS011;6456;42.680;23.260;2023-10-08T11:08:31;5.47;;;3.10;;
12784;SDS011;6456;42.680;23.260;2023-10-08T11:11:00;4.47;;;2.72;;
12784;SDS011;6456;42.680;23.260;2023-10-08T11:13:32;6.00;;;2.72;;
12784;SDS011;6456;42.680;23.260;2023-10-08T11:16:04;7.35;;;2.92;;
12784;SDS011;6456;42.680;23.260;2023-10-08T11:18:32;4.15;;;2.90;;
12784;SDS011;6456;42.680;23.260;2023-10-08T11:21:06;4.30;;;2.60;;
12784;SDS011;6456;42.680;23.260;2023-10-08T11:23:47;5.45;;;2.55;;
12784;SDS011;6456;42.680;23.260;2023-10-08T11:26:20;5.22;;;2.47;;
12784;SDS011;6456;42.680;23.260;2023-10-08T11:28:58;4.85;;;2.67;;
12784;SDS011;6456;42.680;23.260;2023-10-08T11:31:28;5.07;;;2.80;;
12784;SDS011;6456;42.680;23.260;2023-10-08T11:33:59;6.10;;;2.85;;
12784;SDS011;6456;42.680;23.260;2023-10-08T11:36:27;8.52;;;3.00;;
12784;SDS011;6456;42.680;23.260;2023-10-08T11:38:55;9.27;;;2.83;;
12784;SDS011;6456;42.680;23.260;2023-10-08T11:41:27;8.98;;;2.97;;
12784;SDS011;6456;42.680;23.260;2023-10-08T11:43:55;5.35;;;2.72;;
12784;SDS011;6456;42.680;23.260;2023-10-08T11:46:24;9.75;;;3.72;;
12784;SDS011;6456;42.680;23.260;2023-10-08T11:48:53;8.73;;;3.10;;
12784;SDS011;6456;42.680;23.260;2023-10-08T11:51:23;8.18;;;3.45;;
12784;SDS011;6456;42.680;23.260;2023-10-08T11:53:50;6.25;;;3.00;;
12784;SDS011;6456;42.680;23.260;2023-10-08T11:56:18;7.60;;;3.70;;
12784;SDS011;6456;42.680;23.260;2023-10-08T11:58:48;7.15;;;2.90;;
12784;SDS011;6456;42.680;23.260;2023-10-08T12:01:18;6.10;;;3.00;;
12784;SDS011;6456;42.680;23.260;2023-10-08T12:03:45;4.05;;;2.58;;
12784;SDS011;6456;42.680;23.260;2023-10-08T12:06:15;5.75;;;2.85;;
12784;SDS011;6456;42.680;23.260;2023-10-08T12:08:44;10.25;;;2.90;;
12784;SDS011;6456;42.680;23.260;2023-10-08T12:11:14;6.75;;;2.65;;
12784;SDS011;6456;42.680;23.260;2023-10-08T12:13:41;5.53;;;2.78;;
12784;SDS011;6456;42.680;23.260;2023-10-08T12:16:12;6.75;;;3.58;;
12784;SDS011;6456;42.680;23.260;2023-10-08T12:18:48;9.82;;;2.92;;
12784;SDS011;6456;42.680;23.260;2023-10-08T12:21:19;5.25;;;3.45;;
12784;SDS011;6456;42.680;23.260;2023-10-08T12:23:47;8.55;;;3.17;;
12784;SDS011;6456;42.680;23.260;2023-10-08T12:26:15;10.48;;;3.45;;
12784;SDS011;6456;42.680;23.260;2023-10-08T12:28:44;15.57;;;3.60;;
12784;SDS011;6456;42.680;23.260;2023-10-08T12:31:13;11.02;;;3.83;;
12784;SDS011;6456;42.680;23.260;2023-10-08T12:33:41;5.85;;;2.80;;
12784;SDS011;6456;42.680;23.260;2023-10-08T12:36:10;8.02;;;3.60;;
12784;SDS011;6456;42.680;23.260;2023-10-08T12:38:38;8.80;;;3.17;;
12784;SDS011;6456;42.680;23.260;2023-10-08T12:41:06;6.05;;;2.90;;
12784;SDS011;6456;42.680;23.260;2023-10-08T12:43:45;6.18;;;3.05;;
12784;SDS011;6456;42.680;23.260;2023-10-08T12:46:17;6.53;;;2.80;;
12784;SDS011;6456;42.680;23.260;2023-10-08T12:48:49;5.47;;;2.63;;
12784;SDS011;6456;42.680;23.260;2023-10-08T12:51:20;8.02;;;3.35;;
12784;SDS011;6456;42.680;23.260;2023-10-08T12:53:49;7.03;;;3.17;;
12784;SDS011;6456;42.680;23.260;2023-10-08T12:56:23;8.70;;;3.25;;
12784;SDS011;6456;42.680;23.260;2023-10-08T12:58:57;9.85;;;2.67;;
12784;SDS011;6456;42.680;23.260;2023-10-08T13:01:24;10.25;;;2.97;;
12784;SDS011;6456;42.680;23.260;2023-10-08T13:03:54;7.50;;;3.10;;
12784;SDS011;6456;42.680;23.260;2023-10-08T13:06:27;7.53;;;2.80;;
12784;SDS011;6456;42.680;23.260;2023-10-08T13:08:55;8.43;;;2.55;;
12784;SDS011;6456;42.680;23.260;2023-10-08T13:11:22;6.97;;;3.17;;
12784;SDS011;6456;42.680;23.260;2023-10-08T13:13:51;5.35;;;2.95;;
12784;SDS011;6456;42.680;23.260;2023-10-08T13:16:21;8.73;;;2.78;;
12784;SDS011;6456;42.680;23.260;2023-10-08T13:18:51;5.95;;;2.65;;
12784;SDS011;6456;42.680;23.260;2023-10-08T13:21:21;10.00;;;3.03;;
12784;SDS011;6456;42.680;23.260;2023-10-08T13:23:51;5.40;;;3.00;;
12784;SDS011;6456;42.680;23.260;2023-10-08T13:26:19;7.22;;;2.70;;
12784;SDS011;6456;42.680;23.260;2023-10-08T13:28:49;4.50;;;2.72;;
12784;SDS011;6456;42.680;23.260;2023-10-08T13:31:17;4.45;;;2.80;;
12784;SDS011;6456;42.680;23.260;2023-10-08T13:33:45;7.43;;;2.67;;
12784;SDS011;6456;42.680;23.260;2023-10-08T13:36:14;8.40;;;2.50;;
12784;SDS011;6456;42.680;23.260;2023-10-08T13:38:42;5.43;;;2.55;;
12784;SDS011;6456;42.680;23.260;2023-10-08T13:41:12;6.35;;;2.78;;
12784;SDS011;6456;42.680;23.260;2023-10-08T13:43:43;9.95;;;3.33;;
12784;SDS011;6456;42.680;23.260;2023-10-08T13:46:12;7.07;;;2.60;;
12784;SDS011;6456;42.680;23.260;2023-10-08T13:48:40;8.50;;;2.97;;
12784;SDS011;6456;42.680;23.260;2023-10-08T13:51:11;4.80;;;2.80;;
12784;SDS011;6456;42.680;23.260;2023-10-08T13:53:40;7.00;;;3.08;;
12784;SDS011;6456;42.680;23.260;2023-10-08T13:56:10;5.10;;;2.40;;
12784;SDS011;6456;42.680;23.260;2023-10-08T13:58:40;4.45;;;2.60;;
12784;SDS011;6456;42.680;23.260;2023-10-08T14:01:11;9.77;;;3.30;;
12784;SDS011;6456;42.680;23.260;2023-10-08T14:03:45;7.60;;;3.00;;
12784;SDS011;6456;42.680;23.260;2023-10-08T14:06:13;9.10;;;2.90;;
12784;SDS011;6456;42.680;23.260;2023-10-08T14:08:41;6.93;;;2.70;;
12784;SDS011;6456;42.680;23.260;2023-10-08T14:11:09;6.78;;;2.60;;
12784;SDS011;6456;42.680;23.260;2023-10-08T14:13:40;5.85;;;2.67;;
12784;SDS011;6456;42.680;23.260;2023-10-08T14:16:07;4.93;;;2.63;;
12784;SDS011;6456;42.680;23.260;2023-10-08T14:18:36;9.18;;;2.97;;
12784;SDS011;6456;42.680;23.260;2023-10-08T14:21:06;5.93;;;2.63;;
12784;SDS011;6456;42.680;23.260;2023-10-08T14:23:35;7.40;;;3.03;;
12784;SDS011;6456;42.680;23.260;2023-10-08T14:26:04;12.30;;;2.95;;
12784;SDS011;6456;42.680;23.260;2023-10-08T14:28:32;13.70;;;3.35;;
12784;SDS011;6456;42.680;23.260;2023-10-08T14:31:17;10.43;;;3.25;;
12784;SDS011;6456;42.680;23.260;2023-10-08T14:33:47;8.23;;;3.13;;
12784;SDS011;6456;42.680;23.260;2023-10-08T14:36:30;9.63;;;2.90;;
12784;SDS011;6456;42.680;23.260;2023-10-08T14:39:14;10.90;;;2.65;;
12784;SDS011;6456;42.680;23.260;2023-10-08T14:42:01;14.90;;;3.00;;
12784;SDS011;6456;42.680;23.260;2023-10-08T14:44:45;11.27;;;3.20;;
12784;SDS011;6456;42.680;23.260;2023-10-08T14:47:15;7.63;;;3.35;;
12784;SDS011;6456;42.680;23.260;2023-10-08T14:49:43;8.60;;;2.88;;
12784;SDS011;6456;42.680;23.260;2023-10-08T14:52:10;11.63;;;3.47;;
12784;SDS011;6456;42.680;23.260;2023-10-08T14:54:37;11.75;;;3.33;;
12784;SDS011;6456;42.680;23.260;2023-10-08T14:57:04;14.88;;;3.53;;
12784;SDS011;6456;42.680;23.260;2023-10-08T14:59:31;10.73;;;3.63;;
12784;SDS011;6456;42.680;23.260;2023-10-08T15:02:17;8.48;;;3.33;;
12784;SDS011;6456;42.680;23.260;2023-10-08T15:04:44;7.25;;;2.83;;
12784;SDS011;6456;42.680;23.260;2023-10-08T15:07:11;8.15;;;3.13;;
12784;SDS011;6456;42.680;23.260;2023-10-08T15:09:43;9.50;;;3.17;;
12784;SDS011;6456;42.680;23.260;2023-10-08T15:12:11;6.30;;;2.97;;
12784;SDS011;6456;42.680;23.260;2023-10-08T15:14:41;9.23;;;3.25;;
12784;SDS011;6456;42.680;23.260;2023-10-08T15:17:08;7.40;;;3.10;;